createdAt,value
2022-12-24T00:00:19.335Z,12.30
2022-12-24T00:02:47.077Z,12.20
2022-12-24T00:05:14.978Z,12.20
2022-12-24T00:07:42.654Z,12.20
2022-12-24T00:10:11.556Z,12.10
2022-12-24T00:12:39.306Z,12.10
2022-12-24T00:15:09.832Z,12.00
2022-12-24T00:17:37.557Z,12.00
2022-12-24T00:20:06.171Z,12.30
2022-12-24T00:22:33.872Z,12.40
2022-12-24T00:25:01.634Z,12.30
2022-12-24T00:27:29.323Z,12.30
2022-12-24T00:29:57.021Z,12.20
2022-12-24T00:32:26.040Z,12.20
2022-12-24T00:34:53.688Z,12.20
2022-12-24T00:37:21.361Z,12.30
2022-12-24T00:39:49.000Z,12.40
2022-12-24T00:42:16.696Z,12.40
2022-12-24T00:44:44.379Z,12.20
2022-12-24T00:47:12.384Z,12.10
2022-12-24T00:49:41.456Z,12.10
2022-12-24T00:52:09.144Z,12.10
2022-12-24T00:54:36.784Z,12.00
2022-12-24T00:57:04.620Z,11.90
2022-12-24T00:59:32.264Z,11.90
2022-12-24T01:02:00.072Z,11.70
2022-12-24T01:04:45.359Z,11.60
2022-12-24T01:07:14.385Z,11.40
2022-12-24T01:09:42.034Z,11.60
2022-12-24T01:12:09.694Z,11.60
2022-12-24T01:14:38.356Z,11.80
2022-12-24T01:17:06.141Z,11.60
2022-12-24T01:19:34.441Z,11.50
2022-12-24T01:22:02.120Z,11.40
2022-12-24T01:24:31.177Z,11.30
2022-12-24T01:26:58.839Z,11.40
2022-12-24T01:29:26.494Z,11.50
2022-12-24T01:31:54.129Z,11.50
2022-12-24T01:34:21.821Z,11.40
2022-12-24T01:36:49.474Z,11.60
2022-12-24T01:39:17.169Z,11.60
2022-12-24T01:42:03.805Z,11.60
2022-12-24T01:44:37.097Z,11.50
2022-12-24T01:47:10.192Z,11.40
2022-12-24T01:49:40.379Z,11.50
2022-12-24T01:52:11.747Z,11.60
2022-12-24T01:54:43.211Z,11.50
2022-12-24T01:57:16.937Z,11.50
2022-12-24T01:59:47.103Z,11.20
2022-12-24T02:02:15.197Z,10.90
2022-12-24T02:04:47.594Z,10.80
2022-12-24T02:07:15.371Z,10.90
2022-12-24T02:09:43.675Z,11.00
2022-12-24T02:12:12.686Z,11.20
2022-12-24T02:14:40.416Z,11.50
2022-12-24T02:17:19.442Z,11.50
2022-12-24T02:20:12.815Z,11.60
2022-12-24T02:22:53.593Z,11.70
2022-12-24T02:25:33.985Z,11.80
2022-12-24T02:28:14.327Z,11.90
2022-12-24T02:30:49.545Z,12.10
2022-12-24T02:33:27.070Z,12.40
2022-12-24T02:36:05.142Z,12.60
2022-12-24T02:38:38.241Z,12.70
2022-12-24T02:41:10.277Z,12.40
2022-12-24T02:43:40.816Z,12.50
2022-12-24T02:46:13.936Z,12.40
2022-12-24T02:48:44.286Z,12.50
2022-12-24T02:51:12.954Z,12.60
2022-12-24T02:53:41.344Z,12.70
2022-12-24T02:56:38.244Z,12.80
2022-12-24T02:59:36.490Z,12.90
2022-12-24T03:02:19.504Z,12.80
2022-12-24T03:04:53.643Z,12.70
2022-12-24T03:07:26.319Z,12.80
2022-12-24T03:10:04.135Z,12.80
2022-12-24T03:12:34.437Z,12.70
2022-12-24T03:15:03.192Z,12.80
2022-12-24T03:17:35.339Z,12.70
2022-12-24T03:20:03.778Z,12.90
2022-12-24T03:22:32.316Z,12.80
2022-12-24T03:25:00.025Z,12.90
2022-12-24T03:27:30.065Z,12.90
2022-12-24T03:29:58.460Z,13.20
2022-12-24T03:32:32.180Z,13.30
2022-12-24T03:35:01.395Z,13.30
2022-12-24T03:37:29.126Z,13.10
2022-12-24T03:39:56.787Z,13.40
2022-12-24T03:42:24.444Z,13.50
2022-12-24T03:44:52.097Z,13.30
2022-12-24T03:47:19.778Z,13.60
2022-12-24T03:49:47.449Z,13.50
2022-12-24T03:52:16.481Z,13.60
2022-12-24T03:54:44.155Z,13.70
2022-12-24T03:57:11.888Z,13.70
2022-12-24T03:59:39.580Z,13.70
2022-12-24T04:02:07.657Z,13.60
2022-12-24T04:04:36.821Z,13.80
2022-12-24T04:07:04.530Z,13.90
2022-12-24T04:09:34.265Z,13.90
2022-12-24T04:12:01.989Z,13.80
2022-12-24T04:14:29.659Z,13.80
2022-12-24T04:16:57.399Z,13.40
2022-12-24T04:19:25.076Z,13.50
2022-12-24T04:21:52.736Z,13.30
2022-12-24T04:24:20.405Z,13.60
2022-12-24T04:26:49.414Z,13.50
2022-12-24T04:29:17.148Z,13.50
2022-12-24T04:31:44.926Z,13.80
2022-12-24T04:34:12.655Z,13.70
2022-12-24T04:36:40.362Z,13.80
2022-12-24T04:39:08.129Z,13.60
2022-12-24T04:41:35.821Z,13.90
2022-12-24T04:44:04.926Z,13.80
2022-12-24T04:46:33.005Z,13.80
2022-12-24T04:49:00.780Z,13.90
2022-12-24T04:51:29.435Z,14.10
2022-12-24T04:53:57.992Z,13.80
2022-12-24T04:56:27.453Z,13.80
2022-12-24T04:58:55.808Z,13.70
2022-12-24T05:01:26.148Z,13.70
2022-12-24T05:03:54.811Z,13.90
2022-12-24T05:06:26.278Z,14.00
2022-12-24T05:08:55.815Z,14.00
2022-12-24T05:11:24.153Z,14.00
2022-12-24T05:13:51.991Z,14.00
2022-12-24T05:16:21.713Z,14.00
2022-12-24T05:18:51.198Z,14.00
2022-12-24T05:21:21.411Z,14.00
2022-12-24T05:24:06.934Z,13.80
2022-12-24T05:26:38.708Z,14.10
2022-12-24T05:29:07.783Z,14.20
2022-12-24T05:31:36.216Z,14.00
2022-12-24T05:34:05.262Z,14.00
2022-12-24T05:36:33.408Z,13.90
2022-12-24T05:39:01.605Z,14.10
2022-12-24T05:41:29.380Z,13.90
2022-12-24T05:43:57.217Z,14.20
2022-12-24T05:46:26.369Z,14.10
2022-12-24T05:48:54.453Z,14.00
2022-12-24T05:51:24.597Z,13.80
2022-12-24T05:53:52.827Z,13.80
2022-12-24T05:56:22.768Z,13.70
2022-12-24T05:58:52.104Z,14.00
2022-12-24T06:01:20.497Z,13.50
2022-12-24T06:03:49.626Z,13.80
2022-12-24T06:06:20.768Z,13.80
2022-12-24T06:08:50.799Z,13.90
2022-12-24T06:11:23.207Z,13.80
2022-12-24T06:13:51.119Z,13.80
2022-12-24T06:16:20.469Z,14.00
2022-12-24T06:18:48.466Z,13.90
2022-12-24T06:21:17.071Z,14.10
2022-12-24T06:23:46.103Z,14.00
2022-12-24T06:26:17.373Z,13.90
2022-12-24T06:28:45.952Z,13.90
2022-12-24T06:31:16.489Z,13.80
2022-12-24T06:33:44.622Z,14.00
2022-12-24T06:36:17.684Z,13.90
2022-12-24T06:38:45.968Z,13.90
2022-12-24T06:41:15.552Z,13.70
2022-12-24T06:43:45.982Z,13.90
2022-12-24T06:46:14.698Z,13.80
2022-12-24T06:48:43.309Z,13.80
2022-12-24T06:51:11.025Z,13.70
2022-12-24T06:53:38.690Z,13.90
2022-12-24T06:56:08.019Z,13.50
2022-12-24T06:58:37.521Z,13.70
2022-12-24T07:01:08.194Z,13.90
2022-12-24T07:03:36.231Z,13.70
2022-12-24T07:06:04.063Z,13.90
2022-12-24T07:08:33.542Z,13.80
2022-12-24T07:11:01.621Z,13.90
2022-12-24T07:13:29.749Z,13.70
2022-12-24T07:16:03.245Z,13.90
2022-12-24T07:18:31.048Z,13.70
2022-12-24T07:20:58.991Z,13.90
2022-12-24T07:23:26.699Z,13.40
2022-12-24T07:25:54.353Z,13.70
2022-12-24T07:28:27.489Z,13.60
2022-12-24T07:30:55.855Z,13.80
2022-12-24T07:33:24.901Z,13.70
2022-12-24T07:35:59.882Z,13.60
2022-12-24T07:38:27.917Z,13.80
2022-12-24T07:40:55.641Z,13.90
2022-12-24T07:43:24.060Z,13.80
2022-12-24T07:45:51.893Z,13.80
2022-12-24T07:48:19.573Z,13.70
2022-12-24T07:50:50.118Z,13.80
2022-12-24T07:53:17.847Z,13.90
2022-12-24T07:55:45.835Z,14.00
2022-12-24T07:58:13.629Z,13.90
2022-12-24T08:00:41.346Z,14.00
2022-12-24T08:03:09.061Z,13.90
2022-12-24T08:05:37.403Z,13.80
2022-12-24T08:08:06.404Z,13.80
2022-12-24T08:10:34.059Z,13.80
2022-12-24T08:13:01.754Z,13.70
2022-12-24T08:15:29.435Z,13.90
2022-12-24T08:17:57.383Z,13.80
2022-12-24T08:20:25.105Z,13.90
2022-12-24T08:22:53.717Z,13.90
2022-12-24T08:25:22.728Z,13.80
2022-12-24T08:27:50.451Z,13.80
2022-12-24T08:30:21.331Z,13.80
2022-12-24T08:32:49.456Z,13.80
2022-12-24T08:35:17.366Z,13.80
2022-12-24T08:37:45.066Z,13.70
2022-12-24T08:40:13.884Z,13.60
2022-12-24T08:42:43.029Z,13.60
2022-12-24T08:45:11.850Z,13.70
2022-12-24T08:47:39.731Z,13.50
2022-12-24T08:50:08.869Z,13.50
2022-12-24T08:52:36.977Z,13.60
2022-12-24T08:55:05.714Z,13.40
2022-12-24T08:57:36.437Z,13.40
2022-12-24T09:00:07.710Z,13.20
2022-12-24T09:02:35.647Z,13.30
2022-12-24T09:05:03.497Z,13.40
2022-12-24T09:07:31.517Z,13.30
2022-12-24T09:09:59.281Z,13.40
2022-12-24T09:12:26.954Z,13.50
2022-12-24T09:15:01.281Z,13.40
2022-12-24T09:17:32.277Z,13.60
2022-12-24T09:19:59.954Z,13.50
2022-12-24T09:22:27.806Z,13.50
2022-12-24T09:24:56.008Z,13.70
2022-12-24T09:27:23.765Z,13.70
2022-12-24T09:29:51.469Z,13.80
2022-12-24T09:32:19.947Z,13.90
2022-12-24T09:34:49.275Z,13.80
2022-12-24T09:37:17.120Z,13.90
2022-12-24T09:39:44.952Z,13.90
2022-12-24T09:42:24.900Z,13.90
2022-12-24T09:44:59.256Z,13.90
2022-12-24T09:47:32.838Z,14.10
2022-12-24T09:50:05.545Z,14.00
2022-12-24T09:52:37.536Z,14.00
2022-12-24T09:55:16.588Z,14.00
2022-12-24T09:57:45.933Z,14.10
2022-12-24T10:00:21.647Z,14.20
2022-12-24T10:02:49.437Z,14.20
2022-12-24T10:05:35.991Z,14.20
2022-12-24T10:08:11.289Z,14.40
2022-12-24T10:10:47.552Z,14.40
2022-12-24T10:13:22.047Z,14.40
2022-12-24T10:15:56.039Z,14.40
2022-12-24T10:18:35.277Z,14.40
2022-12-24T10:21:13.266Z,14.40
2022-12-24T10:23:47.573Z,14.50
2022-12-24T10:26:21.112Z,14.50
2022-12-24T10:28:54.476Z,14.60
2022-12-24T10:31:26.786Z,14.50
2022-12-24T10:33:59.126Z,14.60
2022-12-24T10:36:30.508Z,14.70
2022-12-24T10:38:58.860Z,14.60
2022-12-24T10:41:28.772Z,14.60
2022-12-24T10:43:57.318Z,14.70
2022-12-24T10:46:32.497Z,14.70
2022-12-24T10:49:02.841Z,14.70
2022-12-24T10:51:40.196Z,14.90
2022-12-24T10:54:13.239Z,14.80
2022-12-24T10:56:42.975Z,14.70
2022-12-24T10:59:25.669Z,14.70
2022-12-24T11:01:54.160Z,14.50
2022-12-24T11:04:23.607Z,14.70
2022-12-24T11:06:57.764Z,14.30
2022-12-24T11:09:28.205Z,14.50
2022-12-24T11:11:57.312Z,14.80
2022-12-24T11:14:26.392Z,14.80
2022-12-24T11:16:55.597Z,15.00
2022-12-24T11:19:32.291Z,14.80
2022-12-24T11:22:04.629Z,14.60
2022-12-24T11:24:34.756Z,14.90
2022-12-24T11:27:29.473Z,14.70
2022-12-24T11:30:21.593Z,15.00
2022-12-24T11:32:51.351Z,14.90
2022-12-24T11:35:21.613Z,14.90
2022-12-24T11:37:50.986Z,15.10
2022-12-24T11:40:26.582Z,15.00
2022-12-24T11:43:01.333Z,15.10
2022-12-24T11:45:31.057Z,15.00
2022-12-24T11:47:59.722Z,15.00
2022-12-24T11:50:30.142Z,14.90
2022-12-24T11:53:04.530Z,14.90
2022-12-24T11:55:42.256Z,14.90
2022-12-24T11:58:20.942Z,14.70
2022-12-24T12:00:51.467Z,14.40
2022-12-24T12:03:31.477Z,14.10
2022-12-24T12:06:02.656Z,14.70
2022-12-24T12:08:32.359Z,14.80
2022-12-24T12:11:00.988Z,14.90
2022-12-24T12:13:33.240Z,14.60
2022-12-24T12:16:15.625Z,14.70
2022-12-24T12:18:50.295Z,14.70
2022-12-24T12:21:21.002Z,14.60
2022-12-24T12:23:53.787Z,14.50
2022-12-24T12:26:25.688Z,14.70
2022-12-24T12:28:57.528Z,14.90
2022-12-24T12:31:28.682Z,14.80
2022-12-24T12:34:00.203Z,14.60
2022-12-24T12:36:33.538Z,14.70
2022-12-24T12:39:02.820Z,14.70
2022-12-24T12:41:47.004Z,14.60
2022-12-24T12:44:31.025Z,14.40
2022-12-24T12:47:25.701Z,14.50
2022-12-24T12:50:01.181Z,14.60
2022-12-24T12:52:44.350Z,14.70
2022-12-24T12:55:28.278Z,15.00
2022-12-24T12:58:01.792Z,15.20
2022-12-24T13:00:32.182Z,15.30
2022-12-24T13:03:44.400Z,15.30
2022-12-24T13:06:38.285Z,15.60
2022-12-24T13:09:42.076Z,15.70
2022-12-24T13:12:26.003Z,15.70
2022-12-24T13:15:22.817Z,15.70
2022-12-24T13:18:10.633Z,15.60
2022-12-24T13:20:47.433Z,15.50
2022-12-24T13:23:19.826Z,15.60
2022-12-24T13:25:49.189Z,15.70
2022-12-24T13:28:34.023Z,15.80
2022-12-24T13:31:28.074Z,15.90
2022-12-24T13:33:58.031Z,15.90
2022-12-24T13:36:26.094Z,15.90
2022-12-24T13:38:54.771Z,15.80
2022-12-24T13:41:59.140Z,15.90
2022-12-24T13:44:36.024Z,15.60
2022-12-24T13:47:29.982Z,15.60
2022-12-24T13:50:22.031Z,15.40
2022-12-24T13:52:53.314Z,15.00
2022-12-24T13:55:21.649Z,14.40
2022-12-24T13:57:58.983Z,14.40
2022-12-24T14:00:42.739Z,14.10
2022-12-24T14:03:29.143Z,14.00
2022-12-24T14:06:00.450Z,13.80
2022-12-24T14:08:42.053Z,13.70
2022-12-24T14:11:13.484Z,13.40
2022-12-24T14:14:10.994Z,13.40
2022-12-24T14:16:50.512Z,13.50
2022-12-24T14:19:22.276Z,13.40
2022-12-24T14:21:59.141Z,13.30
2022-12-24T14:24:32.668Z,13.40
2022-12-24T14:27:09.289Z,13.50
2022-12-24T14:29:45.754Z,13.40
2022-12-24T14:32:17.566Z,13.40
2022-12-24T14:34:46.016Z,13.30
2022-12-24T14:37:14.734Z,13.30
2022-12-24T14:39:47.873Z,13.00
2022-12-24T14:42:31.108Z,13.20
2022-12-24T14:45:08.425Z,13.20
2022-12-24T14:47:45.831Z,13.20
2022-12-24T14:50:46.650Z,13.30
2022-12-24T14:53:26.418Z,13.30
2022-12-24T14:55:54.100Z,13.30
2022-12-24T14:58:29.776Z,13.20
2022-12-24T15:00:59.611Z,13.20
2022-12-24T15:03:30.621Z,13.30
2022-12-24T15:06:01.212Z,13.30
2022-12-24T15:08:32.066Z,13.30
2022-12-24T15:11:03.962Z,13.50
2022-12-24T15:13:37.086Z,13.70
2022-12-24T15:16:07.369Z,13.70
2022-12-24T15:18:39.407Z,13.70
2022-12-24T15:21:15.178Z,13.80
2022-12-24T15:23:49.252Z,13.80
2022-12-24T15:26:24.248Z,13.90
2022-12-24T15:28:58.273Z,14.00
2022-12-24T15:31:31.130Z,13.90
2022-12-24T15:34:01.374Z,14.00
2022-12-24T15:36:32.270Z,13.90
2022-12-24T15:39:03.198Z,13.90
2022-12-24T15:41:37.935Z,13.90
2022-12-24T15:44:06.037Z,13.80
2022-12-24T15:46:34.160Z,13.90
2022-12-24T15:49:04.144Z,13.90
2022-12-24T15:51:34.514Z,13.90
2022-12-24T15:54:12.025Z,13.80
2022-12-24T15:56:43.811Z,14.00
2022-12-24T15:59:26.806Z,13.90
2022-12-24T16:01:54.888Z,14.00
2022-12-24T16:04:26.307Z,14.10
2022-12-24T16:06:58.732Z,14.10
2022-12-24T16:09:47.119Z,14.20
2022-12-24T16:12:18.201Z,14.10
2022-12-24T16:14:52.241Z,14.10
2022-12-24T16:17:22.760Z,14.10
2022-12-24T16:19:54.942Z,14.10
2022-12-24T16:22:35.117Z,13.90
2022-12-24T16:25:16.532Z,13.90
2022-12-24T16:27:44.335Z,13.80
2022-12-24T16:30:13.253Z,13.60
2022-12-24T16:32:42.034Z,13.70
2022-12-24T16:35:21.583Z,13.70
2022-12-24T16:37:49.256Z,13.70
2022-12-24T16:40:23.327Z,13.70
2022-12-24T16:43:12.019Z,13.70
2022-12-24T16:45:39.779Z,13.80
2022-12-24T16:48:08.129Z,13.90
2022-12-24T16:50:37.417Z,13.80
2022-12-24T16:53:05.128Z,13.90
2022-12-24T16:55:32.831Z,13.80
2022-12-24T16:58:00.567Z,13.70
2022-12-24T17:00:28.521Z,13.80
2022-12-24T17:02:56.733Z,13.70
2022-12-24T17:05:24.824Z,13.60
2022-12-24T17:07:53.893Z,13.80
2022-12-24T17:10:21.578Z,13.60
2022-12-24T17:12:49.258Z,13.60
2022-12-24T17:15:17.111Z,13.50
2022-12-24T17:17:44.833Z,13.50
2022-12-24T17:20:16.696Z,13.60
2022-12-24T17:22:46.757Z,13.50
2022-12-24T17:25:15.979Z,13.50
2022-12-24T17:27:43.805Z,13.50
2022-12-24T17:30:12.067Z,13.50
2022-12-24T17:32:39.949Z,13.20
2022-12-24T17:35:09.355Z,13.10
2022-12-24T17:37:37.070Z,13.20
2022-12-24T17:40:05.569Z,13.10
2022-12-24T17:42:34.627Z,13.10
2022-12-24T17:45:02.318Z,13.20
2022-12-24T17:47:39.862Z,13.00
2022-12-24T17:50:27.880Z,13.10
2022-12-24T17:53:01.542Z,13.10
2022-12-24T17:55:34.688Z,13.10
2022-12-24T17:58:16.989Z,13.10
2022-12-24T18:00:56.814Z,13.20
2022-12-24T18:03:28.972Z,13.00
2022-12-24T18:06:06.080Z,13.00
2022-12-24T18:08:40.388Z,12.90
2022-12-24T18:11:20.218Z,12.90
2022-12-24T18:14:07.776Z,13.00
2022-12-24T18:16:49.853Z,12.80
2022-12-24T18:19:33.934Z,12.90
2022-12-24T18:22:10.536Z,12.90
2022-12-24T18:24:46.310Z,12.70
2022-12-24T18:27:22.921Z,12.80
2022-12-24T18:30:27.590Z,12.90
2022-12-24T18:33:18.572Z,13.00
2022-12-24T18:36:00.938Z,12.80
2022-12-24T18:38:36.030Z,12.80
2022-12-24T18:41:30.965Z,13.00
2022-12-24T18:44:25.923Z,12.90
2022-12-24T18:47:38.278Z,12.80
2022-12-24T18:51:14.465Z,12.80
2022-12-24T18:54:23.971Z,12.50
2022-12-24T18:57:00.500Z,12.80
2022-12-24T18:59:46.868Z,12.60
2022-12-24T19:02:40.824Z,12.50
2022-12-24T19:05:25.568Z,12.60
2022-12-24T19:08:22.267Z,12.80
2022-12-24T19:11:15.718Z,12.70
2022-12-24T19:13:56.673Z,12.80
2022-12-24T19:16:50.343Z,12.60
2022-12-24T19:19:34.201Z,12.60
2022-12-24T19:22:12.164Z,12.60
2022-12-24T19:24:40.384Z,12.70
2022-12-24T19:27:14.938Z,12.60
2022-12-24T19:29:56.486Z,12.60
2022-12-24T19:32:33.467Z,12.60
2022-12-24T19:35:30.807Z,12.60
2022-12-24T19:38:13.546Z,12.60
2022-12-24T19:40:57.153Z,12.60
2022-12-24T19:44:02.188Z,12.60
2022-12-24T19:46:38.378Z,12.60
2022-12-24T19:49:25.419Z,12.60
2022-12-24T19:53:12.084Z,12.50
2022-12-24T19:56:04.427Z,12.60
2022-12-24T19:58:41.595Z,12.60
2022-12-24T20:01:17.278Z,12.50
2022-12-24T20:03:59.723Z,12.50
2022-12-24T20:06:32.340Z,12.40
2022-12-24T20:09:14.221Z,12.40
2022-12-24T20:11:54.802Z,12.50
2022-12-24T20:14:36.713Z,12.30
2022-12-24T20:17:14.422Z,12.20
2022-12-24T20:19:48.118Z,12.30
2022-12-24T20:22:18.548Z,12.40
2022-12-24T20:24:46.784Z,12.40
2022-12-24T20:27:29.823Z,12.30
2022-12-24T20:29:57.911Z,12.40
2022-12-24T20:32:30.499Z,12.30
2022-12-24T20:34:58.987Z,12.30
2022-12-24T20:37:27.328Z,12.30
2022-12-24T20:39:55.437Z,12.30
2022-12-24T20:42:25.007Z,12.20
2022-12-24T20:44:55.747Z,12.10
2022-12-24T20:47:27.315Z,11.90
2022-12-24T20:49:56.003Z,12.00
2022-12-24T20:52:24.436Z,12.00
2022-12-24T20:54:55.397Z,12.00
2022-12-24T20:57:31.440Z,11.90
2022-12-24T21:00:17.182Z,11.80
2022-12-24T21:02:49.966Z,12.00
2022-12-24T21:05:21.560Z,12.00
2022-12-24T21:11:10.295Z,12.10
2022-12-24T21:13:39.506Z,12.00
2022-12-24T21:16:11.116Z,12.20
2022-12-24T21:18:42.474Z,12.20
2022-12-24T21:21:33.964Z,12.10
2022-12-24T21:24:13.584Z,12.20
2022-12-24T21:26:44.163Z,12.30
2022-12-24T21:29:28.128Z,12.20
2022-12-24T21:32:10.104Z,12.20
2022-12-24T21:34:43.135Z,12.00
2022-12-24T21:37:11.420Z,11.80
2022-12-24T21:39:41.878Z,11.60
2022-12-24T21:42:10.147Z,11.40
2022-12-24T21:44:39.815Z,11.60
2022-12-24T21:47:46.098Z,11.70
2022-12-24T21:50:32.529Z,11.50
2022-12-24T21:53:14.565Z,11.60
2022-12-24T21:55:42.856Z,11.40
2022-12-24T21:58:09.812Z,11.40
2022-12-24T22:00:39.253Z,11.50
2022-12-24T22:03:07.627Z,11.50
2022-12-24T22:05:36.412Z,11.50
2022-12-24T22:08:22.193Z,11.40
2022-12-24T22:11:07.471Z,11.40
2022-12-24T22:13:35.687Z,11.20
2022-12-24T22:16:05.441Z,11.10
2022-12-24T22:18:33.747Z,10.90
2022-12-24T22:21:06.112Z,11.20
2022-12-24T22:23:42.073Z,11.00
2022-12-24T22:26:14.997Z,11.00
2022-12-24T22:28:43.300Z,11.10
2022-12-24T22:31:19.566Z,11.20
2022-12-24T22:33:48.101Z,11.00
2022-12-24T22:36:16.225Z,11.00
2022-12-24T22:38:44.699Z,10.90
2022-12-24T22:41:14.918Z,10.90
2022-12-24T22:43:47.055Z,11.00
2022-12-24T22:46:15.446Z,11.10
2022-12-24T22:48:48.662Z,11.00
2022-12-24T22:51:26.360Z,10.90
2022-12-24T22:53:59.812Z,11.00
2022-12-24T22:56:43.127Z,10.90
2022-12-24T22:59:34.512Z,10.90
2022-12-24T23:02:06.969Z,11.10
2022-12-24T23:04:50.057Z,11.00
2022-12-24T23:07:25.187Z,11.00
2022-12-24T23:10:12.108Z,11.00
2022-12-24T23:12:58.018Z,11.00
2022-12-24T23:15:26.373Z,10.90
2022-12-24T23:17:58.263Z,11.00
2022-12-24T23:20:28.694Z,11.00
2022-12-24T23:22:56.966Z,10.90
2022-12-24T23:25:27.013Z,11.00
2022-12-24T23:28:03.128Z,10.90
2022-12-24T23:30:37.033Z,10.70
2022-12-24T23:33:17.502Z,10.80
2022-12-24T23:36:30.727Z,10.70
2022-12-24T23:39:12.897Z,10.80
2022-12-24T23:42:10.948Z,10.70
2022-12-24T23:45:05.836Z,10.80
2022-12-24T23:47:51.623Z,10.80
2022-12-24T23:50:46.630Z,10.80
2022-12-24T23:53:29.004Z,10.90
2022-12-24T23:56:14.175Z,11.00
2022-12-24T23:59:07.730Z,11.10
